sensor_id;sensor_type;location;lat;lon;timestamp;P1;durP1;ratioP1;P2;durP2;ratioP2
19998;SDS011;10160;50.926;4.374;2022-12-07T00:01:09;25.53;;;12.63;;
19998;SDS011;10160;50.926;4.374;2022-12-07T00:03:37;21.50;;;13.00;;
19998;SDS011;10160;50.926;4.374;2022-12-07T00:06:05;24.10;;;12.17;;
19998;SDS011;10160;50.926;4.374;2022-12-07T00:08:33;22.77;;;12.47;;
19998;SDS011;10160;50.926;4.374;2022-12-07T00:11:06;22.57;;;12.97;;
19998;SDS011;10160;50.926;4.374;2022-12-07T00:13:34;27.33;;;13.07;;
19998;SDS011;10160;50.926;4.374;2022-12-07T00:16:04;23.73;;;13.53;;
19998;SDS011;10160;50.926;4.374;2022-12-07T00:18:32;21.90;;;14.00;;
19998;SDS011;10160;50.926;4.374;2022-12-07T00:21:01;28.33;;;13.70;;
19998;SDS011;10160;50.926;4.374;2022-12-07T00:23:27;33.40;;;13.60;;
19998;SDS011;10160;50.926;4.374;2022-12-07T00:25:53;22.90;;;14.13;;
19998;SDS011;10160;50.926;4.374;2022-12-07T00:28:19;24.53;;;14.00;;
19998;SDS011;10160;50.926;4.374;2022-12-07T00:30:44;22.90;;;13.90;;
19998;SDS011;10160;50.926;4.374;2022-12-07T00:33:10;23.63;;;14.00;;
19998;SDS011;10160;50.926;4.374;2022-12-07T00:35:35;27.40;;;14.17;;
19998;SDS011;10160;50.926;4.374;2022-12-07T00:38:01;23.67;;;13.77;;
19998;SDS011;10160;50.926;4.374;2022-12-07T00:40:26;22.53;;;14.10;;
19998;SDS011;10160;50.926;4.374;2022-12-07T00:42:52;23.93;;;13.43;;
19998;SDS011;10160;50.926;4.374;2022-12-07T00:45:18;23.93;;;14.23;;
19998;SDS011;10160;50.926;4.374;2022-12-07T00:47:43;25.43;;;14.47;;
19998;SDS011;10160;50.926;4.374;2022-12-07T00:50:09;27.50;;;14.63;;
19998;SDS011;10160;50.926;4.374;2022-12-07T00:52:35;24.73;;;13.47;;
19998;SDS011;10160;50.926;4.374;2022-12-07T00:55:00;26.53;;;14.27;;
19998;SDS011;10160;50.926;4.374;2022-12-07T00:57:26;22.57;;;14.43;;
19998;SDS011;10160;50.926;4.374;2022-12-07T00:59:51;24.10;;;14.13;;
19998;SDS011;10160;50.926;4.374;2022-12-07T01:02:20;26.17;;;14.57;;
19998;SDS011;10160;50.926;4.374;2022-12-07T01:04:47;23.17;;;14.23;;
19998;SDS011;10160;50.926;4.374;2022-12-07T01:07:12;27.50;;;15.17;;
19998;SDS011;10160;50.926;4.374;2022-12-07T01:09:38;28.93;;;13.87;;
19998;SDS011;10160;50.926;4.374;2022-12-07T01:12:04;27.27;;;14.13;;
19998;SDS011;10160;50.926;4.374;2022-12-07T01:14:29;28.73;;;15.57;;
19998;SDS011;10160;50.926;4.374;2022-12-07T01:16:55;21.53;;;13.97;;
19998;SDS011;10160;50.926;4.374;2022-12-07T01:19:21;24.57;;;14.90;;
19998;SDS011;10160;50.926;4.374;2022-12-07T01:21:46;27.23;;;14.90;;
19998;SDS011;10160;50.926;4.374;2022-12-07T01:24:12;26.90;;;14.33;;
19998;SDS011;10160;50.926;4.374;2022-12-07T01:26:37;30.53;;;14.40;;
19998;SDS011;10160;50.926;4.374;2022-12-07T01:29:03;29.10;;;15.40;;
19998;SDS011;10160;50.926;4.374;2022-12-07T01:31:29;27.23;;;15.20;;
19998;SDS011;10160;50.926;4.374;2022-12-07T01:33:56;25.90;;;15.57;;
19998;SDS011;10160;50.926;4.374;2022-12-07T01:36:24;26.37;;;15.37;;
19998;SDS011;10160;50.926;4.374;2022-12-07T01:38:59;30.37;;;15.37;;
19998;SDS011;10160;50.926;4.374;2022-12-07T01:41:27;30.50;;;16.50;;
19998;SDS011;10160;50.926;4.374;2022-12-07T01:46:52;25.90;;;15.77;;
19998;SDS011;10160;50.926;4.374;2022-12-07T01:49:39;28.53;;;15.40;;
19998;SDS011;10160;50.926;4.374;2022-12-07T01:52:19;28.27;;;15.30;;
19998;SDS011;10160;50.926;4.374;2022-12-07T01:54:56;27.67;;;15.50;;
19998;SDS011;10160;50.926;4.374;2022-12-07T01:57:26;24.27;;;14.77;;
19998;SDS011;10160;50.926;4.374;2022-12-07T01:59:52;24.50;;;13.70;;
19998;SDS011;10160;50.926;4.374;2022-12-07T02:02:27;25.97;;;15.40;;
19998;SDS011;10160;50.926;4.374;2022-12-07T02:05:06;26.23;;;13.90;;
19998;SDS011;10160;50.926;4.374;2022-12-07T02:07:34;23.33;;;13.40;;
19998;SDS011;10160;50.926;4.374;2022-12-07T02:10:19;22.40;;;11.87;;
19998;SDS011;10160;50.926;4.374;2022-12-07T02:12:50;24.67;;;13.03;;
19998;SDS011;10160;50.926;4.374;2022-12-07T02:15:19;23.37;;;13.30;;
19998;SDS011;10160;50.926;4.374;2022-12-07T02:18:06;20.00;;;12.90;;
19998;SDS011;10160;50.926;4.374;2022-12-07T02:20:51;25.80;;;13.17;;
19998;SDS011;10160;50.926;4.374;2022-12-07T02:31:44;21.67;;;11.07;;
19998;SDS011;10160;50.926;4.374;2022-12-07T02:34:34;21.53;;;11.53;;
19998;SDS011;10160;50.926;4.374;2022-12-07T02:40:34;18.73;;;11.63;;
19998;SDS011;10160;50.926;4.374;2022-12-07T02:43:21;17.10;;;10.43;;
19998;SDS011;10160;50.926;4.374;2022-12-07T02:46:02;18.73;;;10.47;;
19998;SDS011;10160;50.926;4.374;2022-12-07T02:48:33;16.27;;;9.87;;
19998;SDS011;10160;50.926;4.374;2022-12-07T02:51:00;16.57;;;9.50;;
19998;SDS011;10160;50.926;4.374;2022-12-07T02:53:39;17.60;;;9.40;;
19998;SDS011;10160;50.926;4.374;2022-12-07T03:01:43;17.77;;;9.50;;
19998;SDS011;10160;50.926;4.374;2022-12-07T03:07:00;18.97;;;9.37;;
19998;SDS011;10160;50.926;4.374;2022-12-07T03:09:45;17.87;;;8.63;;
19998;SDS011;10160;50.926;4.374;2022-12-07T03:12:25;16.97;;;8.53;;
19998;SDS011;10160;50.926;4.374;2022-12-07T03:14:59;17.40;;;9.27;;
19998;SDS011;10160;50.926;4.374;2022-12-07T03:17:32;18.17;;;8.50;;
19998;SDS011;10160;50.926;4.374;2022-12-07T03:20:02;18.50;;;8.70;;
19998;SDS011;10160;50.926;4.374;2022-12-07T03:22:31;17.67;;;8.30;;
19998;SDS011;10160;50.926;4.374;2022-12-07T03:25:01;15.50;;;8.80;;
19998;SDS011;10160;50.926;4.374;2022-12-07T03:27:32;16.70;;;8.93;;
19998;SDS011;10160;50.926;4.374;2022-12-07T03:30:04;17.37;;;8.70;;
19998;SDS011;10160;50.926;4.374;2022-12-07T03:32:37;17.93;;;8.20;;
19998;SDS011;10160;50.926;4.374;2022-12-07T03:37:55;19.07;;;8.83;;
19998;SDS011;10160;50.926;4.374;2022-12-07T03:40:27;14.33;;;9.10;;
19998;SDS011;10160;50.926;4.374;2022-12-07T03:42:57;16.40;;;9.40;;
19998;SDS011;10160;50.926;4.374;2022-12-07T03:45:30;18.53;;;9.23;;
19998;SDS011;10160;50.926;4.374;2022-12-07T03:50:41;17.17;;;8.77;;
19998;SDS011;10160;50.926;4.374;2022-12-07T03:53:15;21.50;;;9.43;;
19998;SDS011;10160;50.926;4.374;2022-12-07T03:55:45;15.57;;;9.57;;
19998;SDS011;10160;50.926;4.374;2022-12-07T03:58:16;18.10;;;9.37;;
19998;SDS011;10160;50.926;4.374;2022-12-07T04:00:44;18.93;;;9.97;;
19998;SDS011;10160;50.926;4.374;2022-12-07T04:03:11;17.77;;;9.80;;
19998;SDS011;10160;50.926;4.374;2022-12-07T04:05:37;18.40;;;9.30;;
19998;SDS011;10160;50.926;4.374;2022-12-07T04:08:04;20.57;;;10.33;;
19998;SDS011;10160;50.926;4.374;2022-12-07T04:10:29;23.93;;;10.53;;
19998;SDS011;10160;50.926;4.374;2022-12-07T04:12:55;18.20;;;9.70;;
19998;SDS011;10160;50.926;4.374;2022-12-07T04:15:21;15.23;;;9.93;;
19998;SDS011;10160;50.926;4.374;2022-12-07T04:17:47;21.13;;;10.10;;
19998;SDS011;10160;50.926;4.374;2022-12-07T04:20:13;16.80;;;10.00;;
19998;SDS011;10160;50.926;4.374;2022-12-07T04:22:38;18.70;;;10.60;;
19998;SDS011;10160;50.926;4.374;2022-12-07T04:25:04;19.23;;;11.30;;
19998;SDS011;10160;50.926;4.374;2022-12-07T04:27:30;18.30;;;10.63;;
19998;SDS011;10160;50.926;4.374;2022-12-07T04:29:56;20.17;;;10.20;;
19998;SDS011;10160;50.926;4.374;2022-12-07T04:32:22;20.57;;;10.67;;
19998;SDS011;10160;50.926;4.374;2022-12-07T04:34:49;26.67;;;11.73;;
19998;SDS011;10160;50.926;4.374;2022-12-07T04:37:14;23.63;;;10.90;;
19998;SDS011;10160;50.926;4.374;2022-12-07T04:39:40;21.20;;;12.10;;
19998;SDS011;10160;50.926;4.374;2022-12-07T04:42:06;22.33;;;12.03;;
19998;SDS011;10160;50.926;4.374;2022-12-07T04:44:32;19.87;;;11.13;;
19998;SDS011;10160;50.926;4.374;2022-12-07T04:46:57;21.30;;;11.80;;
19998;SDS011;10160;50.926;4.374;2022-12-07T04:49:23;20.63;;;11.70;;
19998;SDS011;10160;50.926;4.374;2022-12-07T04:51:49;23.40;;;12.20;;
19998;SDS011;10160;50.926;4.374;2022-12-07T04:54:15;19.97;;;10.97;;
19998;SDS011;10160;50.926;4.374;2022-12-07T04:56:42;21.70;;;11.70;;
19998;SDS011;10160;50.926;4.374;2022-12-07T04:59:08;22.57;;;12.00;;
19998;SDS011;10160;50.926;4.374;2022-12-07T05:01:35;24.30;;;11.77;;
19998;SDS011;10160;50.926;4.374;2022-12-07T05:04:01;21.40;;;11.73;;
19998;SDS011;10160;50.926;4.374;2022-12-07T05:06:27;28.50;;;12.03;;
19998;SDS011;10160;50.926;4.374;2022-12-07T05:08:52;21.30;;;11.63;;
19998;SDS011;10160;50.926;4.374;2022-12-07T05:11:18;22.03;;;12.37;;
19998;SDS011;10160;50.926;4.374;2022-12-07T05:14:02;20.00;;;11.50;;
19998;SDS011;10160;50.926;4.374;2022-12-07T05:16:39;23.70;;;11.47;;
19998;SDS011;10160;50.926;4.374;2022-12-07T05:19:06;23.87;;;11.50;;
19998;SDS011;10160;50.926;4.374;2022-12-07T05:21:32;24.03;;;11.30;;
19998;SDS011;10160;50.926;4.374;2022-12-07T05:23:58;21.93;;;11.87;;
19998;SDS011;10160;50.926;4.374;2022-12-07T05:26:24;20.20;;;12.40;;
19998;SDS011;10160;50.926;4.374;2022-12-07T05:28:53;20.03;;;11.60;;
19998;SDS011;10160;50.926;4.374;2022-12-07T05:31:20;27.90;;;12.73;;
19998;SDS011;10160;50.926;4.374;2022-12-07T05:33:47;23.80;;;12.40;;
19998;SDS011;10160;50.926;4.374;2022-12-07T05:36:12;25.20;;;13.03;;
19998;SDS011;10160;50.926;4.374;2022-12-07T05:38:38;19.20;;;11.03;;
19998;SDS011;10160;50.926;4.374;2022-12-07T05:41:04;24.87;;;11.67;;
19998;SDS011;10160;50.926;4.374;2022-12-07T05:43:31;22.47;;;11.23;;
19998;SDS011;10160;50.926;4.374;2022-12-07T05:45:59;22.53;;;12.90;;
19998;SDS011;10160;50.926;4.374;2022-12-07T05:48:24;22.97;;;11.93;;
19998;SDS011;10160;50.926;4.374;2022-12-07T05:50:51;29.20;;;13.37;;
19998;SDS011;10160;50.926;4.374;2022-12-07T05:53:17;24.77;;;12.60;;
19998;SDS011;10160;50.926;4.374;2022-12-07T05:55:43;23.63;;;12.30;;
19998;SDS011;10160;50.926;4.374;2022-12-07T05:58:09;27.00;;;12.27;;
19998;SDS011;10160;50.926;4.374;2022-12-07T06:00:56;21.10;;;12.43;;
19998;SDS011;10160;50.926;4.374;2022-12-07T06:03:22;19.93;;;12.20;;
19998;SDS011;10160;50.926;4.374;2022-12-07T06:05:48;22.17;;;12.33;;
19998;SDS011;10160;50.926;4.374;2022-12-07T06:08:14;24.03;;;11.67;;
19998;SDS011;10160;50.926;4.374;2022-12-07T06:10:40;18.67;;;11.33;;
19998;SDS011;10160;50.926;4.374;2022-12-07T06:13:06;19.50;;;11.27;;
19998;SDS011;10160;50.926;4.374;2022-12-07T06:15:32;18.93;;;10.67;;
19998;SDS011;10160;50.926;4.374;2022-12-07T06:18:00;23.10;;;10.50;;
19998;SDS011;10160;50.926;4.374;2022-12-07T06:20:26;19.77;;;10.97;;
19998;SDS011;10160;50.926;4.374;2022-12-07T06:22:51;18.77;;;11.30;;
19998;SDS011;10160;50.926;4.374;2022-12-07T06:25:17;19.93;;;10.60;;
19998;SDS011;10160;50.926;4.374;2022-12-07T06:27:43;20.27;;;10.80;;
19998;SDS011;10160;50.926;4.374;2022-12-07T06:30:08;19.83;;;9.83;;
19998;SDS011;10160;50.926;4.374;2022-12-07T06:32:35;16.73;;;10.37;;
19998;SDS011;10160;50.926;4.374;2022-12-07T06:35:02;17.30;;;10.33;;
19998;SDS011;10160;50.926;4.374;2022-12-07T06:37:28;26.00;;;11.27;;
19998;SDS011;10160;50.926;4.374;2022-12-07T06:39:54;19.20;;;10.93;;
19998;SDS011;10160;50.926;4.374;2022-12-07T06:42:20;18.50;;;9.70;;
19998;SDS011;10160;50.926;4.374;2022-12-07T06:44:45;17.40;;;9.30;;
19998;SDS011;10160;50.926;4.374;2022-12-07T06:47:11;19.13;;;9.57;;
19998;SDS011;10160;50.926;4.374;2022-12-07T06:49:37;19.77;;;9.77;;
19998;SDS011;10160;50.926;4.374;2022-12-07T06:52:03;15.97;;;10.07;;
19998;SDS011;10160;50.926;4.374;2022-12-07T06:54:29;16.90;;;9.83;;
19998;SDS011;10160;50.926;4.374;2022-12-07T06:56:55;16.50;;;9.90;;
19998;SDS011;10160;50.926;4.374;2022-12-07T06:59:21;21.23;;;10.00;;
19998;SDS011;10160;50.926;4.374;2022-12-07T07:01:46;19.03;;;9.73;;
19998;SDS011;10160;50.926;4.374;2022-12-07T07:04:12;23.30;;;9.93;;
19998;SDS011;10160;50.926;4.374;2022-12-07T07:06:38;15.80;;;9.27;;
19998;SDS011;10160;50.926;4.374;2022-12-07T07:09:03;16.57;;;9.30;;
19998;SDS011;10160;50.926;4.374;2022-12-07T07:11:29;17.87;;;9.77;;
19998;SDS011;10160;50.926;4.374;2022-12-07T07:13:55;19.10;;;9.77;;
19998;SDS011;10160;50.926;4.374;2022-12-07T07:16:23;20.60;;;8.93;;
19998;SDS011;10160;50.926;4.374;2022-12-07T07:18:49;19.07;;;9.00;;
19998;SDS011;10160;50.926;4.374;2022-12-07T07:21:15;18.33;;;9.20;;
19998;SDS011;10160;50.926;4.374;2022-12-07T07:23:40;17.27;;;9.37;;
19998;SDS011;10160;50.926;4.374;2022-12-07T07:26:06;17.30;;;9.40;;
19998;SDS011;10160;50.926;4.374;2022-12-07T07:28:32;21.33;;;9.33;;
19998;SDS011;10160;50.926;4.374;2022-12-07T07:30:57;18.30;;;9.40;;
19998;SDS011;10160;50.926;4.374;2022-12-07T07:33:24;19.83;;;9.33;;
19998;SDS011;10160;50.926;4.374;2022-12-07T07:35:50;17.87;;;9.17;;
19998;SDS011;10160;50.926;4.374;2022-12-07T07:38:15;21.57;;;10.03;;
19998;SDS011;10160;50.926;4.374;2022-12-07T07:40:41;16.03;;;9.57;;
19998;SDS011;10160;50.926;4.374;2022-12-07T07:43:06;21.50;;;10.10;;
19998;SDS011;10160;50.926;4.374;2022-12-07T07:45:32;20.37;;;10.23;;
19998;SDS011;10160;50.926;4.374;2022-12-07T07:48:01;17.83;;;9.37;;
19998;SDS011;10160;50.926;4.374;2022-12-07T07:50:26;16.73;;;9.00;;
19998;SDS011;10160;50.926;4.374;2022-12-07T07:52:52;19.67;;;9.83;;
19998;SDS011;10160;50.926;4.374;2022-12-07T07:55:18;17.20;;;9.30;;
19998;SDS011;10160;50.926;4.374;2022-12-07T07:57:44;19.30;;;9.83;;
19998;SDS011;10160;50.926;4.374;2022-12-07T08:00:10;18.40;;;9.47;;
19998;SDS011;10160;50.926;4.374;2022-12-07T08:02:38;17.87;;;10.03;;
19998;SDS011;10160;50.926;4.374;2022-12-07T08:05:04;21.60;;;10.13;;
19998;SDS011;10160;50.926;4.374;2022-12-07T08:07:30;18.83;;;9.10;;
19998;SDS011;10160;50.926;4.374;2022-12-07T08:09:56;17.83;;;9.43;;
19998;SDS011;10160;50.926;4.374;2022-12-07T08:12:21;19.97;;;9.33;;
19998;SDS011;10160;50.926;4.374;2022-12-07T08:14:47;18.60;;;9.80;;
19998;SDS011;10160;50.926;4.374;2022-12-07T08:17:13;25.70;;;9.47;;
19998;SDS011;10160;50.926;4.374;2022-12-07T08:19:38;21.67;;;9.40;;
19998;SDS011;10160;50.926;4.374;2022-12-07T08:22:04;16.73;;;9.07;;
19998;SDS011;10160;50.926;4.374;2022-12-07T08:24:29;18.00;;;9.57;;
19998;SDS011;10160;50.926;4.374;2022-12-07T08:26:57;16.33;;;8.60;;
19998;SDS011;10160;50.926;4.374;2022-12-07T08:29:25;19.73;;;8.63;;
19998;SDS011;10160;50.926;4.374;2022-12-07T08:31:51;17.13;;;8.30;;
19998;SDS011;10160;50.926;4.374;2022-12-07T08:34:17;17.40;;;8.70;;
19998;SDS011;10160;50.926;4.374;2022-12-07T08:36:43;16.73;;;9.03;;
19998;SDS011;10160;50.926;4.374;2022-12-07T08:39:08;20.63;;;9.13;;
19998;SDS011;10160;50.926;4.374;2022-12-07T08:41:34;13.87;;;8.37;;
19998;SDS011;10160;50.926;4.374;2022-12-07T08:44:00;19.17;;;8.83;;
19998;SDS011;10160;50.926;4.374;2022-12-07T08:51:27;20.87;;;9.47;;
19998;SDS011;10160;50.926;4.374;2022-12-07T08:53:53;14.80;;;7.87;;
19998;SDS011;10160;50.926;4.374;2022-12-07T08:56:20;16.77;;;8.03;;
19998;SDS011;10160;50.926;4.374;2022-12-07T08:58:46;18.93;;;9.00;;
19998;SDS011;10160;50.926;4.374;2022-12-07T09:01:13;14.33;;;8.03;;
19998;SDS011;10160;50.926;4.374;2022-12-07T09:03:39;15.77;;;7.93;;
19998;SDS011;10160;50.926;4.374;2022-12-07T09:06:05;15.73;;;8.13;;
19998;SDS011;10160;50.926;4.374;2022-12-07T09:08:35;18.03;;;7.87;;
19998;SDS011;10160;50.926;4.374;2022-12-07T09:11:04;19.50;;;8.47;;
19998;SDS011;10160;50.926;4.374;2022-12-07T09:13:30;17.33;;;8.70;;
19998;SDS011;10160;50.926;4.374;2022-12-07T09:15:56;19.40;;;8.67;;
19998;SDS011;10160;50.926;4.374;2022-12-07T09:18:22;17.87;;;8.63;;
19998;SDS011;10160;50.926;4.374;2022-12-07T09:20:49;17.20;;;8.43;;
19998;SDS011;10160;50.926;4.374;2022-12-07T09:23:14;19.30;;;8.57;;
19998;SDS011;10160;50.926;4.374;2022-12-07T09:25:40;16.23;;;8.77;;
19998;SDS011;10160;50.926;4.374;2022-12-07T09:28:06;16.50;;;8.80;;
19998;SDS011;10160;50.926;4.374;2022-12-07T09:30:32;16.77;;;8.53;;
19998;SDS011;10160;50.926;4.374;2022-12-07T09:32:57;18.07;;;8.80;;
19998;SDS011;10160;50.926;4.374;2022-12-07T09:35:23;20.00;;;9.07;;
19998;SDS011;10160;50.926;4.374;2022-12-07T09:37:51;15.50;;;8.63;;
19998;SDS011;10160;50.926;4.374;2022-12-07T09:40:17;19.80;;;9.17;;
19998;SDS011;10160;50.926;4.374;2022-12-07T09:42:46;15.33;;;8.97;;
19998;SDS011;10160;50.926;4.374;2022-12-07T09:45:16;18.50;;;8.87;;
19998;SDS011;10160;50.926;4.374;2022-12-07T09:47:50;17.37;;;9.20;;
19998;SDS011;10160;50.926;4.374;2022-12-07T09:52:48;17.43;;;8.20;;
19998;SDS011;10160;50.926;4.374;2022-12-07T09:55:15;14.63;;;7.87;;
19998;SDS011;10160;50.926;4.374;2022-12-07T09:57:46;18.07;;;7.77;;
19998;SDS011;10160;50.926;4.374;2022-12-07T10:00:15;13.93;;;6.47;;
19998;SDS011;10160;50.926;4.374;2022-12-07T10:05:12;14.07;;;5.83;;
19998;SDS011;10160;50.926;4.374;2022-12-07T10:07:41;12.07;;;5.80;;
19998;SDS011;10160;50.926;4.374;2022-12-07T10:10:13;12.80;;;6.10;;
19998;SDS011;10160;50.926;4.374;2022-12-07T10:15:41;13.03;;;6.10;;
19998;SDS011;10160;50.926;4.374;2022-12-07T10:21:13;12.17;;;5.90;;
19998;SDS011;10160;50.926;4.374;2022-12-07T10:24:13;15.20;;;6.80;;
19998;SDS011;10160;50.926;4.374;2022-12-07T10:26:41;15.67;;;6.53;;
19998;SDS011;10160;50.926;4.374;2022-12-07T10:31:41;14.13;;;6.90;;
19998;SDS011;10160;50.926;4.374;2022-12-07T10:34:20;11.60;;;6.67;;
19998;SDS011;10160;50.926;4.374;2022-12-07T10:36:51;16.07;;;6.70;;
19998;SDS011;10160;50.926;4.374;2022-12-07T10:39:19;11.40;;;7.30;;
19998;SDS011;10160;50.926;4.374;2022-12-07T10:41:53;15.27;;;7.27;;
19998;SDS011;10160;50.926;4.374;2022-12-07T10:44:22;18.27;;;7.20;;
19998;SDS011;10160;50.926;4.374;2022-12-07T10:52:32;14.37;;;6.30;;
19998;SDS011;10160;50.926;4.374;2022-12-07T11:00:51;10.63;;;5.10;;
19998;SDS011;10160;50.926;4.374;2022-12-07T11:03:46;10.20;;;4.97;;
19998;SDS011;10160;50.926;4.374;2022-12-07T11:06:43;16.07;;;5.23;;
19998;SDS011;10160;50.926;4.374;2022-12-07T11:12:47;13.40;;;5.77;;
19998;SDS011;10160;50.926;4.374;2022-12-07T11:22:18;13.73;;;5.40;;
19998;SDS011;10160;50.926;4.374;2022-12-07T11:24:44;13.40;;;4.90;;
19998;SDS011;10160;50.926;4.374;2022-12-07T11:30:19;9.23;;;3.87;;
19998;SDS011;10160;50.926;4.374;2022-12-07T11:38:07;12.77;;;3.42;;
19998;SDS011;10160;50.926;4.374;2022-12-07T11:40:42;10.32;;;3.67;;
19998;SDS011;10160;50.926;4.374;2022-12-07T11:43:15;8.65;;;2.88;;
19998;SDS011;10160;50.926;4.374;2022-12-07T11:48:38;11.13;;;3.40;;
19998;SDS011;10160;50.926;4.374;2022-12-07T11:51:09;9.38;;;2.80;;
19998;SDS011;10160;50.926;4.374;2022-12-07T11:56:14;9.18;;;3.40;;
19998;SDS011;10160;50.926;4.374;2022-12-07T11:58:48;11.52;;;3.03;;
19998;SDS011;10160;50.926;4.374;2022-12-07T12:01:29;7.47;;;2.78;;
19998;SDS011;10160;50.926;4.374;2022-12-07T12:06:34;9.07;;;2.45;;
19998;SDS011;10160;50.926;4.374;2022-12-07T12:09:05;7.68;;;2.28;;
19998;SDS011;10160;50.926;4.374;2022-12-07T12:22:39;8.80;;;2.47;;
19998;SDS011;10160;50.926;4.374;2022-12-07T12:25:16;7.47;;;2.53;;
19998;SDS011;10160;50.926;4.374;2022-12-07T12:27:48;11.07;;;2.50;;
19998;SDS011;10160;50.926;4.374;2022-12-07T12:30:26;5.97;;;2.10;;
19998;SDS011;10160;50.926;4.374;2022-12-07T12:32:52;6.80;;;2.00;;
19998;SDS011;10160;50.926;4.374;2022-12-07T12:35:37;6.30;;;1.75;;
19998;SDS011;10160;50.926;4.374;2022-12-07T12:40:53;6.45;;;2.03;;
19998;SDS011;10160;50.926;4.374;2022-12-07T12:43:39;5.97;;;1.52;;
19998;SDS011;10160;50.926;4.374;2022-12-07T12:48:55;6.63;;;1.50;;
19998;SDS011;10160;50.926;4.374;2022-12-07T12:51:42;6.13;;;1.38;;
19998;SDS011;10160;50.926;4.374;2022-12-07T12:59:32;6.25;;;1.90;;
19998;SDS011;10160;50.926;4.374;2022-12-07T13:20:50;6.37;;;1.47;;
19998;SDS011;10160;50.926;4.374;2022-12-07T13:23:19;7.40;;;1.77;;
19998;SDS011;10160;50.926;4.374;2022-12-07T13:28:25;5.73;;;1.90;;
19998;SDS011;10160;50.926;4.374;2022-12-07T13:33:35;7.30;;;1.97;;
19998;SDS011;10160;50.926;4.374;2022-12-07T13:36:01;9.97;;;1.83;;
19998;SDS011;10160;50.926;4.374;2022-12-07T13:38:28;8.50;;;1.80;;
19998;SDS011;10160;50.926;4.374;2022-12-07T13:41:14;6.43;;;1.90;;
19998;SDS011;10160;50.926;4.374;2022-12-07T13:43:47;9.70;;;2.20;;
19998;SDS011;10160;50.926;4.374;2022-12-07T13:46:15;11.17;;;2.43;;
19998;SDS011;10160;50.926;4.374;2022-12-07T13:48:47;6.17;;;2.43;;
19998;SDS011;10160;50.926;4.374;2022-12-07T13:51:18;7.17;;;2.50;;
19998;SDS011;10160;50.926;4.374;2022-12-07T13:53:51;10.63;;;2.03;;
19998;SDS011;10160;50.926;4.374;2022-12-07T13:56:20;6.13;;;1.97;;
19998;SDS011;10160;50.926;4.374;2022-12-07T13:58:49;7.17;;;2.00;;
19998;SDS011;10160;50.926;4.374;2022-12-07T14:01:14;5.33;;;1.90;;
19998;SDS011;10160;50.926;4.374;2022-12-07T14:03:40;5.93;;;2.47;;
19998;SDS011;10160;50.926;4.374;2022-12-07T14:08:42;7.13;;;2.73;;
19998;SDS011;10160;50.926;4.374;2022-12-07T14:11:11;7.67;;;3.03;;
19998;SDS011;10160;50.926;4.374;2022-12-07T14:16:25;5.30;;;3.10;;
19998;SDS011;10160;50.926;4.374;2022-12-07T14:18:59;7.17;;;4.00;;
19998;SDS011;10160;50.926;4.374;2022-12-07T14:21:28;12.37;;;4.00;;
19998;SDS011;10160;50.926;4.374;2022-12-07T14:24:28;7.13;;;4.10;;
19998;SDS011;10160;50.926;4.374;2022-12-07T14:26:48;6.23;;;3.83;;
19998;SDS011;10160;50.926;4.374;2022-12-07T14:29:18;9.93;;;3.90;;
19998;SDS011;10160;50.926;4.374;2022-12-07T14:31:50;9.67;;;4.00;;
19998;SDS011;10160;50.926;4.374;2022-12-07T14:34:19;9.73;;;4.13;;
19998;SDS011;10160;50.926;4.374;2022-12-07T14:36:46;8.27;;;4.17;;
19998;SDS011;10160;50.926;4.374;2022-12-07T14:39:11;8.03;;;3.90;;
19998;SDS011;10160;50.926;4.374;2022-12-07T14:41:37;6.83;;;4.27;;
19998;SDS011;10160;50.926;4.374;2022-12-07T14:44:22;9.67;;;4.63;;
19998;SDS011;10160;50.926;4.374;2022-12-07T14:46:48;14.17;;;5.17;;
19998;SDS011;10160;50.926;4.374;2022-12-07T14:49:15;9.17;;;4.83;;
19998;SDS011;10160;50.926;4.374;2022-12-07T14:51:41;11.47;;;4.77;;
19998;SDS011;10160;50.926;4.374;2022-12-07T14:54:19;9.90;;;5.00;;
19998;SDS011;10160;50.926;4.374;2022-12-07T14:56:46;9.07;;;4.90;;
19998;SDS011;10160;50.926;4.374;2022-12-07T14:59:15;9.63;;;5.10;;
19998;SDS011;10160;50.926;4.374;2022-12-07T15:01:41;10.93;;;5.67;;
19998;SDS011;10160;50.926;4.374;2022-12-07T15:04:07;10.70;;;4.53;;
19998;SDS011;10160;50.926;4.374;2022-12-07T15:06:32;6.83;;;4.17;;
19998;SDS011;10160;50.926;4.374;2022-12-07T15:08:58;10.53;;;4.00;;
19998;SDS011;10160;50.926;4.374;2022-12-07T15:11:24;8.20;;;4.30;;
19998;SDS011;10160;50.926;4.374;2022-12-07T15:13:49;10.90;;;5.00;;
19998;SDS011;10160;50.926;4.374;2022-12-07T15:16:34;9.90;;;4.57;;
19998;SDS011;10160;50.926;4.374;2022-12-07T15:19:01;10.60;;;5.10;;
19998;SDS011;10160;50.926;4.374;2022-12-07T15:21:26;11.67;;;4.77;;
19998;SDS011;10160;50.926;4.374;2022-12-07T15:23:52;14.20;;;4.83;;
19998;SDS011;10160;50.926;4.374;2022-12-07T15:26:18;10.23;;;4.13;;
19998;SDS011;10160;50.926;4.374;2022-12-07T15:28:44;9.77;;;5.07;;
19998;SDS011;10160;50.926;4.374;2022-12-07T15:31:13;10.70;;;4.73;;
19998;SDS011;10160;50.926;4.374;2022-12-07T15:33:40;8.63;;;4.80;;
19998;SDS011;10160;50.926;4.374;2022-12-07T15:36:06;13.03;;;4.53;;
19998;SDS011;10160;50.926;4.374;2022-12-07T15:38:32;11.33;;;4.37;;
19998;SDS011;10160;50.926;4.374;2022-12-07T15:40:58;9.80;;;4.50;;
19998;SDS011;10160;50.926;4.374;2022-12-07T15:43:23;9.37;;;4.23;;
19998;SDS011;10160;50.926;4.374;2022-12-07T15:46:07;12.13;;;5.20;;
19998;SDS011;10160;50.926;4.374;2022-12-07T15:48:33;9.97;;;5.13;;
19998;SDS011;10160;50.926;4.374;2022-12-07T15:51:06;10.17;;;4.20;;
19998;SDS011;10160;50.926;4.374;2022-12-07T15:53:33;9.80;;;4.47;;
19998;SDS011;10160;50.926;4.374;2022-12-07T15:56:00;9.07;;;4.77;;
19998;SDS011;10160;50.926;4.374;2022-12-07T15:58:26;9.70;;;4.33;;
19998;SDS011;10160;50.926;4.374;2022-12-07T16:00:51;10.60;;;4.47;;
19998;SDS011;10160;50.926;4.374;2022-12-07T16:03:17;13.33;;;5.93;;
19998;SDS011;10160;50.926;4.374;2022-12-07T16:05:48;10.50;;;4.30;;
19998;SDS011;10160;50.926;4.374;2022-12-07T16:08:14;13.30;;;5.33;;
19998;SDS011;10160;50.926;4.374;2022-12-07T16:10:40;9.43;;;5.03;;
19998;SDS011;10160;50.926;4.374;2022-12-07T16:13:08;11.67;;;4.90;;
19998;SDS011;10160;50.926;4.374;2022-12-07T16:15:37;10.07;;;5.13;;
19998;SDS011;10160;50.926;4.374;2022-12-07T16:18:03;14.87;;;4.47;;
19998;SDS011;10160;50.926;4.374;2022-12-07T16:20:29;10.43;;;4.60;;
19998;SDS011;10160;50.926;4.374;2022-12-07T16:22:54;11.70;;;4.40;;
19998;SDS011;10160;50.926;4.374;2022-12-07T16:25:20;11.23;;;5.00;;
19998;SDS011;10160;50.926;4.374;2022-12-07T16:27:46;9.87;;;4.43;;
19998;SDS011;10160;50.926;4.374;2022-12-07T16:30:12;7.47;;;4.53;;
19998;SDS011;10160;50.926;4.374;2022-12-07T16:32:39;11.10;;;4.37;;
19998;SDS011;10160;50.926;4.374;2022-12-07T16:35:04;11.70;;;4.87;;
19998;SDS011;10160;50.926;4.374;2022-12-07T16:37:30;10.97;;;5.53;;
19998;SDS011;10160;50.926;4.374;2022-12-07T16:39:55;13.57;;;5.70;;
19998;SDS011;10160;50.926;4.374;2022-12-07T16:42:21;12.60;;;5.67;;
19998;SDS011;10160;50.926;4.374;2022-12-07T16:44:47;16.20;;;6.70;;
19998;SDS011;10160;50.926;4.374;2022-12-07T16:47:12;13.10;;;7.10;;
19998;SDS011;10160;50.926;4.374;2022-12-07T16:49:38;13.07;;;7.03;;
19998;SDS011;10160;50.926;4.374;2022-12-07T16:52:04;12.70;;;6.87;;
19998;SDS011;10160;50.926;4.374;2022-12-07T16:54:29;15.10;;;6.87;;
19998;SDS011;10160;50.926;4.374;2022-12-07T16:56:58;15.63;;;7.97;;